createdAt,value
2023-02-11T00:00:44.981Z,6.71
2023-02-11T00:03:12.305Z,6.66
2023-02-11T00:05:39.535Z,6.75
2023-02-11T00:08:08.235Z,6.78
2023-02-11T00:10:35.464Z,6.79
2023-02-11T00:13:02.794Z,6.77
2023-02-11T00:15:30.142Z,6.78
2023-02-11T00:17:57.381Z,6.81
2023-02-11T00:20:24.583Z,6.82
2023-02-11T00:22:51.845Z,6.81
2023-02-11T00:25:20.467Z,6.85
2023-02-11T00:27:47.672Z,6.85
2023-02-11T00:30:14.960Z,6.86
2023-02-11T00:32:42.373Z,6.87
2023-02-11T00:35:09.712Z,6.85
2023-02-11T00:37:37.056Z,6.91
2023-02-11T00:40:06.953Z,6.89
2023-02-11T00:42:35.624Z,6.94
2023-02-11T00:45:03.506Z,6.87
2023-02-11T00:47:30.764Z,6.87
2023-02-11T00:49:57.963Z,6.87
2023-02-11T00:52:27.756Z,6.90
2023-02-11T00:54:54.998Z,6.87
2023-02-11T00:57:22.469Z,6.89
2023-02-11T00:59:51.926Z,6.87
2023-02-11T01:02:19.296Z,6.83
2023-02-11T01:04:46.506Z,6.87
2023-02-11T01:07:13.894Z,6.87
2023-02-11T01:09:41.106Z,6.88
2023-02-11T01:12:08.426Z,6.88
2023-02-11T01:14:35.756Z,6.89
2023-02-11T01:17:05.958Z,6.87
2023-02-11T01:19:33.416Z,6.88
2023-02-11T01:22:00.656Z,6.87
2023-02-11T01:24:28.036Z,6.88
2023-02-11T01:26:55.345Z,6.88
2023-02-11T01:29:25.159Z,6.85
2023-02-11T01:31:55.112Z,6.88
2023-02-11T01:34:23.876Z,6.89
2023-02-11T01:36:51.129Z,6.98
2023-02-11T01:39:18.451Z,6.95
2023-02-11T01:41:46.983Z,6.95
2023-02-11T01:44:29.154Z,6.94
2023-02-11T01:46:56.449Z,6.99
2023-02-11T01:49:30.349Z,6.98
2023-02-11T01:52:03.364Z,7.03
2023-02-11T01:54:33.951Z,7.03
2023-02-11T01:57:04.621Z,7.04
2023-02-11T01:59:35.937Z,7.09
2023-02-11T02:02:08.034Z,7.10
2023-02-11T02:04:44.302Z,7.12
2023-02-11T02:07:19.290Z,7.14
2023-02-11T02:09:52.901Z,7.13
2023-02-11T02:12:20.175Z,7.16
2023-02-11T02:14:47.406Z,7.14
2023-02-11T02:17:26.528Z,7.14
2023-02-11T02:20:31.548Z,7.12
2023-02-11T02:23:17.433Z,7.12
2023-02-11T02:26:13.751Z,7.16
2023-02-11T02:29:18.358Z,7.18
2023-02-11T02:32:33.719Z,7.15
2023-02-11T02:35:11.628Z,7.17
2023-02-11T02:37:47.844Z,7.11
2023-02-11T02:40:20.476Z,7.16
2023-02-11T02:42:49.210Z,7.21
2023-02-11T02:45:16.731Z,7.14
2023-02-11T02:47:44.039Z,7.24
2023-02-11T02:50:17.206Z,7.22
2023-02-11T02:52:52.951Z,7.20
2023-02-11T02:55:45.326Z,7.19
2023-02-11T02:58:39.958Z,7.22
2023-02-11T03:01:16.407Z,7.15
2023-02-11T03:03:50.760Z,7.23
2023-02-11T03:06:25.534Z,7.20
2023-02-11T03:08:57.088Z,7.21
2023-02-11T03:11:25.803Z,7.17
2023-02-11T03:13:55.181Z,7.18
2023-02-11T03:16:26.892Z,7.16
2023-02-11T03:19:02.945Z,7.22
2023-02-11T03:21:33.460Z,7.19
2023-02-11T03:24:05.807Z,7.25
2023-02-11T03:26:38.792Z,7.21
2023-02-11T03:29:14.370Z,7.20
2023-02-11T03:31:51.086Z,7.26
2023-02-11T03:34:23.414Z,7.25
2023-02-11T03:36:57.064Z,7.23
2023-02-11T03:39:29.437Z,7.26
2023-02-11T03:41:59.978Z,7.29
2023-02-11T03:44:32.670Z,7.27
2023-02-11T03:47:02.833Z,7.26
2023-02-11T03:49:33.177Z,7.31
2023-02-11T03:52:03.332Z,7.30
2023-02-11T03:54:31.546Z,7.34
2023-02-11T03:57:01.522Z,7.35
2023-02-11T03:59:29.462Z,7.31
2023-02-11T04:01:56.967Z,7.34
2023-02-11T04:04:24.170Z,7.34
2023-02-11T04:06:51.526Z,7.37
2023-02-11T04:09:20.088Z,7.43
2023-02-11T04:11:47.342Z,7.30
2023-02-11T04:14:14.579Z,7.40
2023-02-11T04:16:41.918Z,7.40
2023-02-11T04:19:09.151Z,7.39
2023-02-11T04:21:36.451Z,7.39
2023-02-11T04:24:04.133Z,7.44
2023-02-11T04:26:33.280Z,7.41
2023-02-11T04:29:00.587Z,7.37
2023-02-11T04:31:27.968Z,7.40
2023-02-11T04:33:55.991Z,7.48
2023-02-11T04:36:23.305Z,7.46
2023-02-11T04:38:50.665Z,7.45
2023-02-11T04:41:17.973Z,7.50
2023-02-11T04:43:46.642Z,7.44
2023-02-11T04:46:13.914Z,7.42
2023-02-11T04:48:41.177Z,7.47
2023-02-11T04:51:09.133Z,7.44
2023-02-11T04:53:36.332Z,7.55
2023-02-11T04:56:03.939Z,7.49
2023-02-11T04:58:31.281Z,7.52
2023-02-11T05:01:07.268Z,7.44
2023-02-11T05:03:35.343Z,7.45
2023-02-11T05:06:02.708Z,7.53
2023-02-11T05:08:30.196Z,7.44
2023-02-11T05:10:57.630Z,7.43
2023-02-11T05:13:24.925Z,7.42
2023-02-11T05:15:52.466Z,7.48
2023-02-11T05:18:21.598Z,7.45
2023-02-11T05:20:49.008Z,7.52
2023-02-11T05:23:16.256Z,7.50
2023-02-11T05:25:43.565Z,7.51
2023-02-11T05:28:10.791Z,7.54
2023-02-11T05:30:38.190Z,7.55
2023-02-11T05:33:05.473Z,7.53
2023-02-11T05:35:34.003Z,7.58
2023-02-11T05:38:01.217Z,7.54
2023-02-11T05:40:28.489Z,7.57
2023-02-11T05:42:55.768Z,7.50
2023-02-11T05:45:22.986Z,7.47
2023-02-11T05:47:50.234Z,7.46
2023-02-11T05:50:17.526Z,7.43
2023-02-11T05:52:46.150Z,7.42
2023-02-11T05:55:13.733Z,7.43
2023-02-11T05:57:41.183Z,7.39
2023-02-11T06:00:10.317Z,7.39
2023-02-11T06:02:40.540Z,7.31
2023-02-11T06:05:08.559Z,7.35
2023-02-11T06:07:35.939Z,7.33
2023-02-11T06:10:05.326Z,7.37
2023-02-11T06:12:32.631Z,7.32
2023-02-11T06:14:59.822Z,7.34
2023-02-11T06:17:27.088Z,7.36
2023-02-11T06:19:54.300Z,7.36
2023-02-11T06:22:21.540Z,7.35
2023-02-11T06:25:00.798Z,7.35
2023-02-11T06:27:30.429Z,7.36
2023-02-11T06:29:57.770Z,7.32
2023-02-11T06:35:14.374Z,7.28
2023-02-11T06:37:42.595Z,7.33
2023-02-11T06:40:10.296Z,7.26
2023-02-11T06:42:39.537Z,7.28
2023-02-11T06:45:07.915Z,7.30
2023-02-11T06:47:35.093Z,7.29
2023-02-11T06:50:02.484Z,7.30
2023-02-11T06:52:29.884Z,7.34
2023-02-11T06:54:57.076Z,7.31
2023-02-11T06:57:24.384Z,7.34
2023-02-11T06:59:53.028Z,7.38
2023-02-11T07:02:21.130Z,7.29
2023-02-11T07:04:48.826Z,7.39
2023-02-11T07:07:16.071Z,7.34
2023-02-11T07:09:43.571Z,7.31
2023-02-11T07:12:10.801Z,7.36
2023-02-11T07:14:38.420Z,7.40
2023-02-11T07:17:07.010Z,7.39
2023-02-11T07:19:34.331Z,7.48
2023-02-11T07:22:01.592Z,7.53
2023-02-11T07:24:28.868Z,7.58
2023-02-11T07:26:56.275Z,7.61
2023-02-11T07:29:23.642Z,7.63
2023-02-11T07:31:51.015Z,7.67
2023-02-11T07:34:19.758Z,7.67
2023-02-11T07:36:47.042Z,7.75
2023-02-11T07:39:14.551Z,7.78
2023-02-11T07:41:41.846Z,7.81
2023-02-11T07:44:09.474Z,7.82
2023-02-11T07:46:36.817Z,7.79
2023-02-11T07:49:04.207Z,7.83
2023-02-11T07:51:32.756Z,7.77
2023-02-11T07:54:00.256Z,7.80
2023-02-11T07:56:28.656Z,7.81
2023-02-11T07:58:59.017Z,7.83
2023-02-11T08:01:27.187Z,7.84
2023-02-11T08:03:55.665Z,7.91
2023-02-11T08:06:25.676Z,7.94
2023-02-11T08:08:54.436Z,7.97
2023-02-11T08:11:24.149Z,7.98
2023-02-11T08:13:52.470Z,8.03
2023-02-11T08:16:21.990Z,8.00
2023-02-11T08:18:50.646Z,7.92
2023-02-11T08:21:18.909Z,8.01
2023-02-11T08:23:46.367Z,8.02
2023-02-11T08:26:18.056Z,7.97
2023-02-11T08:28:47.509Z,8.05
2023-02-11T08:31:16.744Z,8.06
2023-02-11T08:33:44.574Z,8.02
2023-02-11T08:36:13.554Z,8.03
2023-02-11T08:38:40.862Z,8.07
2023-02-11T08:41:08.328Z,8.06
2023-02-11T08:43:37.591Z,8.13
2023-02-11T08:46:05.153Z,8.10
2023-02-11T08:48:32.490Z,8.25
2023-02-11T08:50:59.869Z,8.28
2023-02-11T08:53:27.199Z,8.19
2023-02-11T08:55:55.595Z,8.15
2023-02-11T08:58:23.438Z,8.13
2023-02-11T09:00:52.678Z,8.16
2023-02-11T09:03:20.205Z,8.11
2023-02-11T09:05:49.067Z,8.13
2023-02-11T09:08:16.964Z,8.15
2023-02-11T09:10:44.465Z,8.12
2023-02-11T09:13:12.051Z,8.14
2023-02-11T09:15:39.511Z,8.18
2023-02-11T09:18:08.282Z,8.17
2023-02-11T09:20:35.578Z,8.13
2023-02-11T09:23:02.904Z,8.15
2023-02-11T09:25:30.109Z,8.11
2023-02-11T09:27:57.430Z,8.09
2023-02-11T09:30:24.724Z,8.08
2023-02-11T09:32:52.010Z,8.07
2023-02-11T09:35:20.808Z,8.13
2023-02-11T09:37:48.154Z,8.17
2023-02-11T09:40:16.238Z,8.14
2023-02-11T09:42:50.671Z,8.16
2023-02-11T09:45:20.385Z,8.13
2023-02-11T09:47:55.386Z,8.20
2023-02-11T09:50:29.172Z,8.21
2023-02-11T09:53:01.052Z,8.15
2023-02-11T09:55:31.697Z,8.17
2023-02-11T09:57:58.942Z,8.29
2023-02-11T10:00:30.912Z,8.21
2023-02-11T10:03:28.332Z,8.35
2023-02-11T10:06:19.640Z,8.34
2023-02-11T10:08:59.550Z,8.33
2023-02-11T10:11:34.350Z,8.29
2023-02-11T10:14:13.391Z,8.48
2023-02-11T10:16:55.585Z,8.37
2023-02-11T10:19:36.537Z,8.37
2023-02-11T10:22:12.158Z,8.45
2023-02-11T10:24:53.903Z,8.38
2023-02-11T10:27:30.992Z,8.37
2023-02-11T10:30:04.008Z,8.31
2023-02-11T10:32:38.766Z,8.30
2023-02-11T10:35:14.618Z,8.30
2023-02-11T10:37:44.630Z,8.30
2023-02-11T10:40:17.325Z,8.26
2023-02-11T10:42:47.846Z,8.30
2023-02-11T10:45:22.425Z,8.27
2023-02-11T10:47:49.735Z,8.32
2023-02-11T10:50:25.697Z,8.31
2023-02-11T10:53:12.376Z,8.37
2023-02-11T10:55:48.599Z,8.49
2023-02-11T10:58:24.967Z,8.59
2023-02-11T11:00:55.086Z,8.57
2023-02-11T11:03:25.284Z,8.60
2023-02-11T11:05:57.300Z,8.63
2023-02-11T11:08:40.498Z,8.81
2023-02-11T11:11:10.169Z,9.02
2023-02-11T11:13:38.613Z,8.94
2023-02-11T11:16:24.976Z,8.95
2023-02-11T11:18:54.423Z,9.00
2023-02-11T11:21:24.155Z,8.83
2023-02-11T11:23:56.547Z,8.97
2023-02-11T11:26:25.586Z,8.95
2023-02-11T11:28:58.904Z,8.91
2023-02-11T11:31:30.399Z,8.85
2023-02-11T11:34:00.440Z,8.82
2023-02-11T11:36:36.507Z,8.84
2023-02-11T11:39:20.280Z,8.76
2023-02-11T11:41:56.726Z,8.81
2023-02-11T11:44:30.988Z,8.82
2023-02-11T11:47:26.459Z,8.86
2023-02-11T11:50:26.537Z,8.81
2023-02-11T11:52:59.724Z,8.79
2023-02-11T11:55:35.074Z,8.85
2023-02-11T11:58:02.417Z,8.92
2023-02-11T12:00:36.190Z,8.93
2023-02-11T12:03:57.849Z,8.98
2023-02-11T12:06:39.324Z,8.99
2023-02-11T12:09:18.173Z,9.04
2023-02-11T12:12:01.954Z,9.00
2023-02-11T12:14:38.534Z,9.13
2023-02-11T12:17:18.722Z,9.22
2023-02-11T12:19:59.613Z,9.27
2023-02-11T12:22:41.513Z,9.35
2023-02-11T12:25:23.668Z,9.50
2023-02-11T12:28:01.388Z,9.53
2023-02-11T12:30:49.793Z,9.55
2023-02-11T12:33:31.494Z,9.58
2023-02-11T12:36:05.863Z,9.54
2023-02-11T12:38:47.058Z,9.72
2023-02-11T12:41:25.055Z,9.69
2023-02-11T12:43:54.025Z,9.71
2023-02-11T12:46:37.592Z,9.74
2023-02-11T12:49:31.535Z,9.75
2023-02-11T12:52:09.249Z,9.76
2023-02-11T12:54:42.243Z,9.77
2023-02-11T12:57:17.937Z,9.79
2023-02-11T12:59:57.183Z,9.85
2023-02-11T13:02:33.964Z,9.75
2023-02-11T13:05:05.378Z,9.80
2023-02-11T13:07:38.984Z,9.71
2023-02-11T13:10:21.668Z,9.76
2023-02-11T13:12:51.442Z,9.59
2023-02-11T13:15:20.021Z,9.63
2023-02-11T13:17:57.305Z,9.66
2023-02-11T13:20:33.311Z,9.64
2023-02-11T13:23:10.733Z,9.62
2023-02-11T13:25:46.413Z,9.61
2023-02-11T13:28:35.502Z,9.56
2023-02-11T13:31:04.700Z,9.52
2023-02-11T13:33:34.552Z,9.43
2023-02-11T13:36:20.232Z,9.37
2023-02-11T13:39:19.211Z,9.26
2023-02-11T13:41:46.801Z,9.17
2023-02-11T13:44:27.314Z,9.14
2023-02-11T13:46:58.772Z,9.10
2023-02-11T13:49:31.735Z,9.13
2023-02-11T13:52:01.497Z,9.09
2023-02-11T13:54:33.537Z,9.08
2023-02-11T13:57:25.320Z,9.07
2023-02-11T13:59:54.385Z,9.07
2023-02-11T14:02:31.064Z,9.08
2023-02-11T14:05:27.556Z,9.15
2023-02-11T14:08:17.495Z,9.18
2023-02-11T14:10:52.874Z,9.19
2023-02-11T14:13:24.176Z,9.10
2023-02-11T14:16:04.611Z,9.09
2023-02-11T14:18:56.117Z,9.01
2023-02-11T14:21:32.041Z,9.02
2023-02-11T14:24:34.859Z,9.02
2023-02-11T14:27:07.378Z,9.02
2023-02-11T14:29:42.071Z,8.99
2023-02-11T14:32:17.529Z,9.01
2023-02-11T14:34:55.652Z,9.03
2023-02-11T14:37:38.039Z,9.10
2023-02-11T14:40:16.431Z,9.06
2023-02-11T14:42:44.677Z,9.10
2023-02-11T14:45:18.632Z,9.14
2023-02-11T14:47:51.089Z,9.17
2023-02-11T14:50:24.251Z,9.14
2023-02-11T14:52:53.200Z,9.16
2023-02-11T14:55:29.323Z,9.17
2023-02-11T14:58:12.434Z,9.16
2023-02-11T15:00:48.662Z,9.23
2023-02-11T15:03:40.834Z,9.28
2023-02-11T15:06:17.780Z,9.18
2023-02-11T15:08:48.614Z,9.12
2023-02-11T15:11:18.566Z,9.12
2023-02-11T15:13:46.881Z,9.11
2023-02-11T15:16:16.340Z,9.11
2023-02-11T15:18:47.985Z,9.03
2023-02-11T15:21:22.977Z,9.02
2023-02-11T15:23:59.514Z,9.03
2023-02-11T15:26:27.162Z,8.99
2023-02-11T15:28:54.426Z,9.02
2023-02-11T15:31:23.756Z,8.96
2023-02-11T15:33:51.763Z,8.92
2023-02-11T15:36:22.164Z,8.93
2023-02-11T15:39:17.104Z,8.88
2023-02-11T15:41:44.558Z,8.82
2023-02-11T15:44:27.776Z,8.81
2023-02-11T15:46:55.440Z,8.79
2023-02-11T15:49:24.362Z,8.79
2023-02-11T15:51:55.970Z,8.75
2023-02-11T15:54:26.485Z,8.76
2023-02-11T15:56:58.971Z,8.76
2023-02-11T15:59:29.383Z,8.75
2023-02-11T16:01:58.727Z,8.75
2023-02-11T16:04:27.925Z,8.72
2023-02-11T16:06:57.036Z,8.72
2023-02-11T16:09:33.363Z,8.71
2023-02-11T16:12:03.158Z,8.71
2023-02-11T16:14:33.629Z,8.69
2023-02-11T16:17:05.150Z,8.67
2023-02-11T16:19:34.136Z,8.68
2023-02-11T16:22:08.447Z,8.66
2023-02-11T16:24:37.522Z,8.65
2023-02-11T16:27:07.704Z,8.66
2023-02-11T16:29:36.914Z,8.67
2023-02-11T16:32:10.045Z,8.64
2023-02-11T16:34:37.503Z,8.60
2023-02-11T16:37:06.355Z,8.64
2023-02-11T16:39:34.032Z,8.58
2023-02-11T16:42:02.140Z,8.61
2023-02-11T16:44:29.795Z,8.62
2023-02-11T16:46:59.402Z,8.65
2023-02-11T16:49:28.995Z,8.61
2023-02-11T16:51:59.465Z,8.61
2023-02-11T16:54:29.447Z,8.62
2023-02-11T16:56:56.868Z,8.62
2023-02-11T16:59:24.139Z,8.63
2023-02-11T17:01:53.040Z,8.61
2023-02-11T17:04:23.522Z,8.63
2023-02-11T17:06:50.930Z,8.61
2023-02-11T17:09:20.762Z,8.64
2023-02-11T17:11:50.054Z,8.64
2023-02-11T17:14:17.893Z,8.64
2023-02-11T17:16:46.758Z,8.68
2023-02-11T17:19:17.058Z,8.73
2023-02-11T17:21:45.371Z,8.70
2023-02-11T17:24:13.194Z,8.69
2023-02-11T17:26:41.258Z,8.65
2023-02-11T17:29:14.081Z,8.69
2023-02-11T17:31:41.444Z,8.72
2023-02-11T17:34:08.801Z,8.75
2023-02-11T17:36:36.199Z,8.72
2023-02-11T17:39:07.705Z,8.70
2023-02-11T17:41:38.324Z,8.74
2023-02-11T17:44:06.621Z,8.79
2023-02-11T17:46:35.796Z,8.79
2023-02-11T17:49:04.333Z,8.77
2023-02-11T17:51:33.602Z,8.77
2023-02-11T17:54:02.770Z,8.78
2023-02-11T17:56:32.824Z,8.73
2023-02-11T17:59:00.143Z,8.74
2023-02-11T18:01:28.071Z,8.72
2023-02-11T18:03:56.713Z,8.76
2023-02-11T18:06:24.022Z,8.66
2023-02-11T18:08:51.303Z,8.73
2023-02-11T18:11:18.925Z,8.68
2023-02-11T18:13:46.214Z,8.65
2023-02-11T18:16:13.468Z,8.67
2023-02-11T18:18:40.732Z,8.62
2023-02-11T18:21:13.936Z,8.61
2023-02-11T18:23:41.880Z,8.61
2023-02-11T18:26:10.444Z,8.62
2023-02-11T18:28:38.324Z,8.58
2023-02-11T18:31:07.548Z,8.55
2023-02-11T18:33:35.823Z,8.50
2023-02-11T18:36:05.014Z,8.45
2023-02-11T18:38:33.802Z,8.44
2023-02-11T18:41:01.593Z,8.38
2023-02-11T18:43:28.932Z,8.37
2023-02-11T18:45:56.191Z,8.36
2023-02-11T18:48:24.274Z,8.31
2023-02-11T18:50:51.647Z,8.27
2023-02-11T18:53:19.092Z,8.29
2023-02-11T18:55:47.930Z,8.29
2023-02-11T18:58:15.260Z,8.25
2023-02-11T19:00:46.006Z,8.31
2023-02-11T19:03:13.616Z,8.28
2023-02-11T19:05:41.622Z,8.24
2023-02-11T19:08:08.939Z,8.21
2023-02-11T19:10:39.758Z,8.26
2023-02-11T19:13:08.530Z,8.26
2023-02-11T19:15:41.061Z,8.21
2023-02-11T19:18:08.337Z,8.25
2023-02-11T19:20:35.635Z,8.24
2023-02-11T19:23:02.832Z,8.23
2023-02-11T19:25:30.063Z,8.19
2023-02-11T19:27:57.504Z,8.19
2023-02-11T19:30:26.127Z,8.19
2023-02-11T19:32:53.353Z,8.17
2023-02-11T19:35:20.825Z,8.13
2023-02-11T19:37:48.033Z,8.11
2023-02-11T19:40:15.557Z,8.10
2023-02-11T19:42:42.823Z,8.08
2023-02-11T19:45:10.322Z,8.03
2023-02-11T19:47:38.994Z,8.02
2023-02-11T19:50:07.562Z,8.00
2023-02-11T19:52:37.287Z,7.97
2023-02-11T19:55:05.034Z,7.95
2023-02-11T19:57:32.403Z,8.01
2023-02-11T19:59:59.603Z,8.01
2023-02-11T20:02:27.011Z,7.98
2023-02-11T20:04:55.677Z,8.00
2023-02-11T20:07:22.947Z,7.96
2023-02-11T20:09:50.145Z,7.94
2023-02-11T20:12:17.633Z,7.98
2023-02-11T20:14:44.874Z,7.99
2023-02-11T20:17:12.125Z,8.02
2023-02-11T20:19:39.373Z,7.96
2023-02-11T20:22:07.937Z,8.01
2023-02-11T20:24:35.163Z,7.98
2023-02-11T20:27:02.447Z,7.99
2023-02-11T20:29:29.622Z,8.00
2023-02-11T20:31:56.934Z,7.97
2023-02-11T20:34:24.246Z,8.00
2023-02-11T20:36:52.068Z,8.03
2023-02-11T20:39:22.501Z,8.01
2023-02-11T20:41:50.542Z,8.01
2023-02-11T20:44:18.019Z,8.00
2023-02-11T20:46:45.722Z,7.99
2023-02-11T20:49:14.902Z,7.98
2023-02-11T20:51:42.612Z,7.94
2023-02-11T20:54:12.374Z,7.92
2023-02-11T20:56:41.124Z,7.96
2023-02-11T20:59:08.422Z,7.93
2023-02-11T21:01:38.565Z,7.94
2023-02-11T21:04:08.324Z,7.96
2023-02-11T21:06:38.351Z,7.96
2023-02-11T21:09:07.836Z,7.93
2023-02-11T21:11:35.482Z,7.97
2023-02-11T21:14:04.113Z,7.95
2023-02-11T21:16:32.360Z,7.94
2023-02-11T21:18:59.729Z,8.00
2023-02-11T21:21:26.946Z,7.99
2023-02-11T21:23:54.256Z,7.92
2023-02-11T21:26:22.046Z,8.00
2023-02-11T21:28:49.329Z,7.96
2023-02-11T21:31:22.718Z,7.95
2023-02-11T21:33:51.390Z,7.99
2023-02-11T21:36:18.953Z,7.96
2023-02-11T21:38:46.450Z,7.92
2023-02-11T21:41:13.652Z,7.95
2023-02-11T21:43:41.126Z,7.94
2023-02-11T21:46:09.912Z,7.97
2023-02-11T21:48:38.951Z,7.91
2023-02-11T21:51:07.892Z,7.95
2023-02-11T21:53:35.591Z,7.92
2023-02-11T21:56:05.798Z,7.94
2023-02-11T21:58:33.173Z,7.93
2023-02-11T22:01:00.589Z,7.90
2023-02-11T22:03:28.165Z,7.92
2023-02-11T22:05:56.970Z,7.90
2023-02-11T22:08:24.657Z,7.91
2023-02-11T22:10:51.924Z,7.92
2023-02-11T22:13:19.180Z,7.91
2023-02-11T22:15:57.619Z,7.97
2023-02-11T22:18:25.053Z,7.98
2023-02-11T22:20:59.624Z,7.98
2023-02-11T22:23:27.643Z,7.96
2023-02-11T22:25:55.238Z,7.95
2023-02-11T22:28:23.428Z,7.97
2023-02-11T22:30:54.928Z,7.93
2023-02-11T22:33:22.928Z,7.95
2023-02-11T22:35:59.641Z,8.02
2023-02-11T22:38:28.154Z,7.96
2023-02-11T22:40:55.592Z,8.00
2023-02-11T22:43:23.228Z,7.93
2023-02-11T22:45:51.097Z,7.92
2023-02-11T22:48:20.244Z,7.92
2023-02-11T22:50:48.656Z,7.86
2023-02-11T22:53:17.346Z,7.90
2023-02-11T22:55:44.628Z,7.94
2023-02-11T22:58:11.964Z,7.94
2023-02-11T23:00:41.057Z,7.93
2023-02-11T23:03:08.867Z,7.86
2023-02-11T23:05:40.056Z,7.93
2023-02-11T23:08:08.032Z,7.93
2023-02-11T23:10:37.902Z,7.89
2023-02-11T23:13:07.455Z,7.93
2023-02-11T23:15:38.342Z,7.90
2023-02-11T23:18:06.696Z,7.85
2023-02-11T23:20:34.410Z,7.87
2023-02-11T23:23:01.863Z,7.85
2023-02-11T23:25:29.418Z,7.83
2023-02-11T23:27:58.112Z,7.82
2023-02-11T23:30:25.611Z,7.81
2023-02-11T23:32:52.839Z,7.83
2023-02-11T23:35:20.099Z,7.81
2023-02-11T23:37:47.781Z,7.77
2023-02-11T23:40:15.692Z,7.82
2023-02-11T23:42:43.053Z,7.78
2023-02-11T23:45:12.107Z,7.80
2023-02-11T23:47:39.750Z,7.77
2023-02-11T23:50:08.519Z,7.77
2023-02-11T23:52:36.066Z,7.82
2023-02-11T23:55:03.963Z,7.79
2023-02-11T23:57:32.321Z,7.76
2023-02-11T23:59:59.555Z,7.78
